Time;durP1;ratioP1;P1;durP2;ratioP2;P2;SDS_P1;SDS_P2;PMS_P1;PMS_P2;Temp;Humidity;BMP_temperature;BMP_pressure;BME280_temperature;BME280_humidity;BME280_pressure;Samples;Min_cycle;Max_cycle;Signal;HPM_P1;HPM_P2
2021/07/06 00:01:12;;;;;;;17.27;3.67;;;;;;;13.83;81.52;98392.06;6156347;23;20015;-74
2021/07/06 00:03:41;;;;;;;33.15;3.33;;;;;;;13.65;81.31;98380.41;6217400;23;20013;-77
2021/07/06 00:06:11;;;;;;;18.58;2.92;;;;;;;13.56;80.74;98376.94;6212241;23;20446;-77
2021/07/06 00:08:37;;;;;;;26.65;3.33;;;;;;;13.54;81.23;98388.25;6188502;23;20504;-74
2021/07/06 00:11:02;;;;;;;23.25;4.13;;;;;;;13.56;80.71;98410.69;6207875;23;20018;-73
2021/07/06 00:13:30;;;;;;;17.52;3.00;;;;;;;13.48;80.53;98397.84;6187326;23;20106;-74
2021/07/06 00:15:56;;;;;;;29.75;4.97;;;;;;;13.41;80.96;98397.56;6187308;23;20001;-75
2021/07/06 00:18:22;;;;;;;25.00;4.45;;;;;;;13.38;81.37;98410.00;6214120;23;20074;-73
2021/07/06 00:20:48;;;;;;;21.88;4.57;;;;;;;13.42;80.68;98410.97;6188019;23;20497;-74
2021/07/06 00:23:14;;;;;;;26.60;4.38;;;;;;;13.47;80.88;98409.94;6215069;23;20032;-75
2021/07/06 00:25:40;;;;;;;25.42;4.03;;;;;;;13.39;81.16;98389.66;6208179;23;20136;-74
2021/07/06 00:28:05;;;;;;;18.90;3.33;;;;;;;13.44;80.76;98389.47;6218956;23;20467;-73
2021/07/06 00:30:31;;;;;;;21.67;3.00;;;;;;;13.52;80.57;98386.97;6199332;23;20036;-74
2021/07/06 00:33:07;;;;;;;14.05;2.58;;;;;;;13.46;80.32;98369.09;6221375;23;20016;-75
2021/07/06 00:35:32;;;;;;;18.48;3.13;;;;;;;13.59;80.00;98379.00;6195069;23;20008;-74
2021/07/06 00:37:57;;;;;;;8.52;2.05;;;;;;;13.58;80.17;98375.47;6213783;23;20344;-73
2021/07/06 00:40:28;;;;;;;9.98;2.25;;;;;;;13.63;79.29;98377.19;6211758;23;20036;-73
2021/07/06 00:42:59;;;;;;;9.68;2.08;;;;;;;13.82;79.80;98382.19;6212367;23;20035;-75
2021/07/06 00:45:25;;;;;;;5.20;1.50;;;;;;;13.90;79.63;98380.50;6219211;23;20047;-73
2021/07/06 00:47:51;;;;;;;5.05;1.58;;;;;;;13.95;79.34;98363.81;6188352;23;20092;-74
2021/07/06 00:50:29;;;;;;;4.53;1.33;;;;;;;13.99;79.03;98342.78;6207775;23;20039;-73
2021/07/06 00:52:57;;;;;;;5.70;1.40;;;;;;;13.94;78.93;98345.72;6213314;23;20012;-74
2021/07/06 00:55:23;;;;;;;6.82;1.83;;;;;;;13.87;78.24;98343.53;6217083;23;20031;-74
2021/07/06 00:57:48;;;;;;;3.05;0.88;;;;;;;13.95;78.51;98347.34;6211776;23;20004;-74
2021/07/06 01:00:19;;;;;;;3.65;0.85;;;;;;;13.98;78.25;98349.41;6211335;23;20363;-74
2021/07/06 01:02:45;;;;;;;6.70;1.73;;;;;;;13.95;78.67;98330.84;6207482;23;20427;-74
2021/07/06 01:05:14;;;;;;;4.65;2.05;;;;;;;13.96;78.48;98325.00;6215966;23;20008;-74
2021/07/06 01:07:40;;;;;;;3.85;1.33;;;;;;;14.03;78.19;98332.72;6207773;23;20004;-73
2021/07/06 01:10:07;;;;;;;8.13;1.58;;;;;;;13.98;78.04;98316.44;6189657;23;20120;-73
2021/07/06 01:12:33;;;;;;;5.35;1.20;;;;;;;14.08;78.44;98329.72;6190362;23;20064;-73
2021/07/06 01:15:00;;;;;;;2.65;1.08;;;;;;;13.99;78.48;98301.56;6190172;23;20455;-73
2021/07/06 01:17:28;;;;;;;5.68;1.55;;;;;;;14.13;78.07;98324.03;6214899;23;20007;-73
2021/07/06 01:19:55;;;;;;;4.20;1.67;;;;;;;14.06;78.45;98310.03;6215765;23;20024;-74
2021/07/06 01:22:30;;;;;;;9.13;1.50;;;;;;;14.08;78.47;98305.00;6217128;23;20024;-74
2021/07/06 01:24:57;;;;;;;9.85;2.08;;;;;;;14.19;78.23;98310.06;6157818;23;20463;-74
2021/07/06 01:27:23;;;;;;;8.95;2.15;;;;;;;14.10;78.38;98288.97;6209449;23;19997;-74
2021/07/06 01:29:49;;;;;;;10.93;2.15;;;;;;;14.17;78.53;98301.34;6210608;23;20015;-75
2021/07/06 01:32:17;;;;;;;15.27;2.78;;;;;;;14.01;78.27;98274.53;6228914;23;20068;-74
2021/07/06 01:34:43;;;;;;;9.45;1.88;;;;;;;14.09;78.31;98295.63;6217666;23;20066;-74
2021/07/06 01:37:08;;;;;;;10.48;2.45;;;;;;;14.03;79.12;98280.50;6216497;23;20009;-74
2021/07/06 01:39:34;;;;;;;13.90;2.72;;;;;;;14.03;78.94;98275.00;6213131;23;20016;-76
2021/07/06 01:42:00;;;;;;;12.65;2.40;;;;;;;14.02;78.73;98278.88;6189275;23;20012;-75
2021/07/06 01:44:26;;;;;;;13.10;2.60;;;;;;;14.01;78.62;98271.78;6218602;23;20007;-74
2021/07/06 01:46:53;;;;;;;11.27;2.33;;;;;;;13.90;78.95;98254.94;6218491;23;20000;-75
2021/07/06 01:49:19;;;;;;;19.83;3.30;;;;;;;13.85;79.47;98246.13;6215709;23;20095;-76
2021/07/06 01:51:53;;;;;;;8.60;1.63;;;;;;;13.77;79.60;98228.59;6217044;23;20438;-76
2021/07/06 01:54:21;;;;;;;8.10;2.03;;;;;;;13.85;79.22;98235.94;6205907;23;20028;-75
2021/07/06 01:56:53;;;;;;;10.75;1.98;;;;;;;13.94;79.71;98241.31;6216887;23;20075;-73
2021/07/06 01:59:19;;;;;;;4.07;1.58;;;;;;;13.93;79.38;98231.47;6215929;23;20024;-73
2021/07/06 02:02:17;;;;;;;9.20;1.52;;;;;;;14.10;79.61;98250.47;6168166;23;20004;-77
2021/07/06 02:04:46;;;;;;;5.72;1.33;;;;;;;13.98;79.55;98224.97;6194304;23;20025;-74
2021/07/06 02:07:14;;;;;;;4.05;1.25;;;;;;;14.07;79.14;98220.94;6216367;23;20477;-73
2021/07/06 02:09:42;;;;;;;4.63;1.48;;;;;;;14.01;79.13;98219.56;6214736;23;20084;-73
2021/07/06 02:12:08;;;;;;;4.05;1.27;;;;;;;14.13;78.93;98229.75;6216562;23;20000;-73
2021/07/06 02:14:36;;;;;;;0.82;0.50;;;;;;;14.18;78.90;98223.22;6210438;23;20080;-74
2021/07/06 02:17:01;;;;;;;5.43;0.73;;;;;;;14.33;78.32;98239.03;6215585;23;20008;-74
2021/07/06 02:19:26;;;;;;;5.90;0.82;;;;;;;14.32;78.49;98235.50;6207767;23;20024;-73
2021/07/06 02:21:52;;;;;;;7.60;1.15;;;;;;;14.36;78.38;98237.56;6190081;23;20036;-73
2021/07/06 02:24:17;;;;;;;7.53;2.25;;;;;;;14.34;78.55;98234.34;6190499;23;20060;-73
2021/07/06 02:26:43;;;;;;;7.15;1.63;;;;;;;14.27;79.04;98230.22;6214244;23;20020;-73
2021/07/06 02:29:08;;;;;;;16.40;2.22;;;;;;;14.06;78.66;98213.88;6163695;23;20035;-74
2021/07/06 02:31:34;;;;;;;3.85;1.15;;;;;;;14.04;78.97;98227.13;6189891;23;20028;-75
2021/07/06 02:33:59;;;;;;;13.13;2.22;;;;;;;13.76;80.27;98227.78;6190673;23;20408;-74
2021/07/06 02:36:24;;;;;;;6.72;1.73;;;;;;;13.58;81.00;98215.38;6215601;23;20130;-75
2021/07/06 02:38:50;;;;;;;9.95;1.90;;;;;;;13.54;81.55;98218.00;6186090;23;20344;-74
2021/07/06 02:41:15;;;;;;;8.65;1.60;;;;;;;13.43;82.00;98209.41;6189648;23;20032;-73
2021/07/06 02:43:41;;;;;;;9.80;1.10;;;;;;;13.29;81.90;98208.88;6191133;23;20012;-74
2021/07/06 02:46:07;;;;;;;5.88;1.10;;;;;;;13.22;81.83;98205.88;6192791;23;20009;-75
2021/07/06 02:48:33;;;;;;;5.30;1.30;;;;;;;13.11;81.72;98191.75;6164168;23;20012;-73
2021/07/06 02:50:58;;;;;;;6.88;1.35;;;;;;;13.07;82.65;98191.66;6191076;23;20020;-73
2021/07/06 02:53:24;;;;;;;5.70;0.85;;;;;;;13.02;82.45;98180.88;6211284;23;20019;-72
2021/07/06 02:55:49;;;;;;;6.10;1.95;;;;;;;12.99;82.29;98173.31;6187686;23;20008;-73
2021/07/06 02:58:15;;;;;;;4.93;0.80;;;;;;;12.97;82.81;98175.59;6214860;23;20000;-72
2021/07/06 03:00:40;;;;;;;2.90;0.43;;;;;;;12.98;83.18;98170.91;6189712;23;20456;-71
2021/07/06 03:03:08;;;;;;;6.22;1.15;;;;;;;12.97;83.15;98164.63;6209406;23;20012;-72
2021/07/06 03:05:34;;;;;;;1.88;0.95;;;;;;;12.90;82.95;98137.75;6188482;23;20008;-71
2021/07/06 03:08:02;;;;;;;4.28;0.73;;;;;;;12.97;83.24;98150.13;6188217;23;19997;-72
2021/07/06 03:10:37;;;;;;;3.72;0.82;;;;;;;12.97;82.77;98142.69;6214657;23;20026;-72
2021/07/06 03:13:03;;;;;;;1.40;0.52;;;;;;;13.02;82.93;98133.44;6211832;23;20004;-72
2021/07/06 03:15:31;;;;;;;4.35;0.75;;;;;;;13.04;82.49;98121.00;6217596;23;20028;-72
2021/07/06 03:17:57;;;;;;;1.05;0.43;;;;;;;13.08;82.59;98121.09;6209788;23;20076;-73
2021/07/06 03:20:26;;;;;;;0.93;0.50;;;;;;;13.10;82.87;98103.16;6214812;23;20001;-72
2021/07/06 03:22:52;;;;;;;3.25;0.70;;;;;;;13.12;82.51;98100.09;6213071;23;20415;-72
2021/07/06 03:25:20;;;;;;;3.08;0.40;;;;;;;13.21;83.12;98097.25;6212044;23;20058;-72
2021/07/06 03:27:45;;;;;;;0.40;0.10;;;;;;;13.25;82.62;98087.19;6214587;23;20000;-71
2021/07/06 03:30:22;;;;;;;3.40;0.35;;;;;;;13.35;83.11;98086.78;6185965;23;20035;-72
2021/07/06 03:32:48;;;;;;;1.27;0.60;;;;;;;13.38;82.65;98080.59;6213197;23;20000;-72
2021/07/06 03:35:14;;;;;;;0.90;0.57;;;;;;;13.41;82.13;98060.69;6186731;23;20518;-73
2021/07/06 03:37:40;;;;;;;0.65;0.45;;;;;;;13.42;82.48;98065.06;6214263;23;20028;-73
2021/07/06 03:40:07;;;;;;;7.55;0.70;;;;;;;13.49;82.73;98063.69;6180661;23;20416;-72
2021/07/06 03:42:35;;;;;;;0.75;0.28;;;;;;;13.52;82.21;98061.06;6209011;23;20005;-73
2021/07/06 03:45:00;;;;;;;0.63;0.30;;;;;;;13.59;82.11;98057.72;6211900;23;20000;-72
2021/07/06 03:47:26;;;;;;;0.10;0.10;;;;;;;13.69;82.47;98046.28;6189537;23;20067;-73
2021/07/06 03:49:51;;;;;;;0.40;0.13;;;;;;;13.73;82.03;98041.69;6210683;23;20019;-70
2021/07/06 03:52:16;;;;;;;0.63;0.20;;;;;;;13.77;81.94;98042.63;6189680;23;20420;-72
2021/07/06 03:54:42;;;;;;;0.57;0.43;;;;;;;13.81;81.49;98025.44;6188381;23;20051;-72
2021/07/06 03:57:08;;;;;;;3.22;0.40;;;;;;;13.78;81.91;98015.94;6188981;23;20027;-73
2021/07/06 03:59:33;;;;;;;1.02;0.40;;;;;;;13.85;81.64;98021.66;6213232;23;20027;-72
2021/07/06 04:01:59;;;;;;;1.30;0.45;;;;;;;13.91;81.48;98016.72;6189924;23;20004;-73
2021/07/06 04:04:24;;;;;;;0.80;0.40;;;;;;;13.99;81.64;98007.56;6215046;23;20379;-72
2021/07/06 04:06:50;;;;;;;0.40;0.40;;;;;;;14.17;81.31;98012.78;6187158;23;20374;-73
2021/07/06 04:09:16;;;;;;;0.38;0.20;;;;;;;14.22;81.54;98012.50;6187842;23;20005;-73
2021/07/06 04:11:42;;;;;;;0.98;0.28;;;;;;;14.29;80.85;98012.72;6216989;23;20004;-72
2021/07/06 04:14:08;;;;;;;2.10;0.52;;;;;;;14.36;81.20;98018.41;6216391;23;20039;-74
2021/07/06 04:16:33;;;;;;;0.50;0.40;;;;;;;14.35;81.17;98005.81;6189869;23;20027;-73
2021/07/06 04:18:59;;;;;;;0.55;0.30;;;;;;;14.33;80.59;98002.63;6184739;23;20036;-73
2021/07/06 04:21:24;;;;;;;1.48;0.50;;;;;;;14.34;80.68;98008.91;6213691;23;20008;-73
2021/07/06 04:23:49;;;;;;;1.52;0.28;;;;;;;14.31;80.41;97999.44;6218156;23;20035;-75
2021/07/06 04:26:15;;;;;;;0.63;0.25;;;;;;;14.28;80.82;97994.63;6211468;23;20004;-73
2021/07/06 04:28:41;;;;;;;0.60;0.40;;;;;;;14.36;80.51;97996.41;6217234;23;20096;-74
2021/07/06 04:31:06;;;;;;;4.80;0.22;;;;;;;14.41;80.17;97998.94;6218697;23;20451;-73
2021/07/06 04:33:32;;;;;;;0.82;0.40;;;;;;;14.52;80.84;97995.66;6210757;23;20083;-73
2021/07/06 04:35:58;;;;;;;0.95;0.40;;;;;;;14.63;80.42;97996.78;6215723;23;20032;-73
2021/07/06 04:38:24;;;;;;;1.95;0.40;;;;;;;14.69;80.02;97989.06;6213941;23;20375;-73
2021/07/06 04:40:49;;;;;;;0.45;0.22;;;;;;;14.68;79.41;97988.28;6191580;23;20024;-73
2021/07/06 04:43:15;;;;;;;0.35;0.32;;;;;;;14.66;79.51;97998.84;6214819;23;20008;-73
2021/07/06 04:45:40;;;;;;;0.43;0.30;;;;;;;14.73;79.44;97996.25;6223786;23;20063;-74
2021/07/06 04:48:06;;;;;;;0.93;0.50;;;;;;;14.80;79.83;97999.19;6163174;23;20031;-73
2021/07/06 04:50:36;;;;;;;0.75;0.20;;;;;;;14.84;79.54;98000.09;6234436;23;20000;-73
2021/07/06 04:53:01;;;;;;;0.70;0.28;;;;;;;14.87;79.59;98014.31;6236414;23;20001;-71
2021/07/06 04:55:27;;;;;;;1.45;0.52;;;;;;;14.88;79.33;98010.38;6185091;23;20024;-71
2021/07/06 04:57:52;;;;;;;1.42;0.40;;;;;;;14.88;79.62;98022.22;6212414;23;20392;-70
2021/07/06 05:00:18;;;;;;;0.47;0.30;;;;;;;14.87;79.45;98030.81;6188749;23;20008;-72
2021/07/06 05:02:45;;;;;;;0.40;0.20;;;;;;;14.85;79.61;98028.41;6215882;23;20445;-74
2021/07/06 05:05:12;;;;;;;0.70;0.22;;;;;;;14.89;79.44;98034.00;6219372;23;20001;-75
2021/07/06 05:07:37;;;;;;;1.50;0.30;;;;;;;14.95;79.37;98043.59;6228065;23;20000;-75
2021/07/06 05:10:06;;;;;;;0.22;0.20;;;;;;;15.07;79.16;98046.28;6202102;23;20083;-75
2021/07/06 05:12:34;;;;;;;0.10;0.10;;;;;;;15.12;79.36;98054.25;6226007;23;20013;-75
2021/07/06 05:15:00;;;;;;;0.95;0.38;;;;;;;15.11;79.09;98066.44;6223371;23;20035;-75
2021/07/06 05:17:25;;;;;;;0.82;0.32;;;;;;;15.07;78.83;98075.75;6221217;23;19997;-77
2021/07/06 05:19:51;;;;;;;0.22;0.13;;;;;;;15.12;79.00;98092.00;6228407;23;20009;-75
2021/07/06 05:22:17;;;;;;;0.30;0.30;;;;;;;15.12;78.82;98103.00;6199864;23;20087;-75
2021/07/06 05:24:42;;;;;;;0.50;0.25;;;;;;;15.12;79.34;98103.81;6218668;23;20005;-76
2021/07/06 05:27:08;;;;;;;0.20;0.10;;;;;;;15.17;78.99;98111.81;6221768;23;20007;-75
2021/07/06 05:29:33;;;;;;;0.45;0.10;;;;;;;15.26;78.78;98135.59;6218615;23;20028;-76
2021/07/06 05:31:59;;;;;;;1.13;0.20;;;;;;;15.23;78.77;98152.84;6219086;23;20067;-76
2021/07/06 05:34:26;;;;;;;0.80;0.40;;;;;;;15.08;77.96;98163.47;6215785;23;20008;-76
2021/07/06 05:36:53;;;;;;;0.73;0.55;;;;;;;14.88;78.13;98167.22;6222171;23;20032;-78
2021/07/06 05:39:18;;;;;;;2.53;0.90;;;;;;;14.69;78.17;98168.66;6222230;23;20033;-79
2021/07/06 05:41:44;;;;;;;5.25;0.98;;;;;;;14.54;78.71;98188.59;6191255;23;20488;-78
2021/07/06 05:44:11;;;;;;;4.03;0.90;;;;;;;14.34;78.67;98185.69;6216868;23;20079;-79
2021/07/06 05:46:37;;;;;;;1.17;0.52;;;;;;;14.20;79.81;98207.22;6217529;23;20495;-79
2021/07/06 05:49:03;;;;;;;1.55;0.50;;;;;;;14.09;80.03;98213.19;6210101;23;20016;-78
2021/07/06 05:51:28;;;;;;;1.40;0.85;;;;;;;14.00;80.06;98208.94;6193131;23;20011;-77
2021/07/06 05:53:54;;;;;;;4.97;0.50;;;;;;;13.93;80.17;98206.72;6169209;23;20339;-77
2021/07/06 05:56:19;;;;;;;3.65;0.82;;;;;;;13.88;80.86;98202.28;6195318;23;20012;-77
2021/07/06 05:58:47;;;;;;;3.55;1.30;;;;;;;13.86;80.86;98209.28;6213527;23;20001;-79
2021/07/06 06:01:13;;;;;;;1.10;0.60;;;;;;;13.78;81.08;98214.53;6211552;23;20088;-76
2021/07/06 06:03:39;;;;;;;2.22;0.73;;;;;;;13.74;80.54;98208.09;6213936;23;20453;-78
2021/07/06 06:06:04;;;;;;;0.77;0.63;;;;;;;13.73;80.50;98206.50;6213841;23;20004;-78
2021/07/06 06:08:30;;;;;;;5.07;0.50;;;;;;;13.81;80.66;98209.47;6220788;23;19996;-78
2021/07/06 06:10:59;;;;;;;1.63;0.50;;;;;;;13.79;80.60;98213.38;6215998;23;20000;-75
2021/07/06 06:13:31;;;;;;;5.53;0.50;;;;;;;13.94;80.96;98222.91;6205109;23;20039;-76
2021/07/06 06:15:57;;;;;;;4.60;0.55;;;;;;;13.96;80.73;98211.56;6145989;23;20008;-76
2021/07/06 06:18:22;;;;;;;2.55;0.68;;;;;;;14.03;80.47;98231.03;6212565;23;20079;-74
2021/07/06 06:20:49;;;;;;;4.78;0.73;;;;;;;14.07;80.96;98242.13;6217905;23;20016;-77
2021/07/06 06:23:14;;;;;;;2.60;0.68;;;;;;;14.14;80.64;98248.66;6219286;23;20031;-73
2021/07/06 06:25:40;;;;;;;5.15;1.13;;;;;;;14.20;80.83;98262.19;6191275;23;20009;-75
2021/07/06 06:28:07;;;;;;;2.05;0.70;;;;;;;14.28;80.63;98281.31;6220001;23;19996;-75
2021/07/06 06:30:34;;;;;;;1.75;0.68;;;;;;;14.33;80.82;98277.53;6219774;23;20011;-75
2021/07/06 06:33:03;;;;;;;5.90;1.00;;;;;;;14.44;80.24;98294.38;6217310;23;20024;-75
2021/07/06 06:35:29;;;;;;;4.43;1.00;;;;;;;14.43;80.16;98293.56;6139658;23;20013;-75
2021/07/06 06:37:54;;;;;;;2.58;1.15;;;;;;;14.48;79.96;98309.84;6142654;23;20048;-75
2021/07/06 06:40:21;;;;;;;5.65;1.27;;;;;;;14.43;80.03;98318.31;6190789;23;20004;-75
2021/07/06 06:42:47;;;;;;;4.47;0.95;;;;;;;14.44;79.91;98327.38;6189256;23;20087;-74
2021/07/06 06:45:14;;;;;;;2.92;0.85;;;;;;;14.47;79.58;98338.50;6185031;23;20009;-74
2021/07/06 06:47:40;;;;;;;3.90;1.17;;;;;;;14.51;79.32;98348.81;6217075;23;20015;-74
2021/07/06 06:50:08;;;;;;;5.70;1.38;;;;;;;14.56;79.18;98374.13;6215905;23;20047;-75
2021/07/06 06:52:35;;;;;;;3.67;1.38;;;;;;;14.54;78.09;98364.63;6190400;23;20005;-77
2021/07/06 06:55:16;;;;;;;3.30;1.10;;;;;;;14.62;77.99;98377.50;6213712;23;20004;-73
2021/07/06 06:57:45;;;;;;;6.45;1.13;;;;;;;14.71;77.59;98372.69;6168000;23;20039;-78
2021/07/06 07:00:32;;;;;;;12.82;1.92;;;;;;;14.86;76.53;98386.91;6220424;23;20126;-75
2021/07/06 07:03:29;;;;;;;4.40;1.45;;;;;;;14.94;76.00;98399.75;6185797;23;20031;-75
2021/07/06 07:05:59;;;;;;;6.47;1.13;;;;;;;14.91;76.00;98400.41;6161498;23;20012;-75
2021/07/06 07:08:25;;;;;;;10.30;1.50;;;;;;;14.92;74.91;98404.78;6147960;23;20012;-73
2021/07/06 07:10:59;;;;;;;17.52;2.13;;;;;;;14.81;74.72;98410.75;6186864;23;20013;-77
2021/07/06 07:14:31;;;;;;;;;;;;;;;;;;;;;
2021/07/06 07:17:02;;;;;;;9.85;1.45;;;;;;;14.57;74.83;98396.94;6114507;23;20072;-75
2021/07/06 07:19:46;;;;;;;;;;;;;;;;;;;;;
2021/07/06 07:22:22;;;;;;;;;;;;;;;;;;;;;
2021/07/06 07:24:47;;;;;;;8.57;1.73;;;;;;;14.66;75.13;98430.69;6195069;23;20549;-76
2021/07/06 07:27:15;;;;;;;8.27;1.38;;;;;;;14.90;74.89;98440.09;6196384;23;20051;-76
2021/07/06 07:29:51;;;;;;;;;;;;;;;;;;;;;
2021/07/06 07:32:17;;;;;;;7.15;1.02;;;;;;;15.25;74.98;98469.94;6193800;23;20024;-75
2021/07/06 07:34:47;;;;;;;5.13;1.30;;;;;;;15.40;74.25;98446.38;6187953;23;20009;-76
2021/07/06 07:37:16;;;;;;;9.73;1.15;;;;;;;15.79;73.14;98457.81;6132083;23;20009;-75
2021/07/06 07:57:48;;;;;;;3.83;1.10;;;;;;;16.66;68.29;98510.63;5818395;24;20079;-76
2021/07/06 08:04:07;;;;;;;12.05;2.08;;;;;;;16.87;67.71;98536.09;5951485;24;20025;-75
2021/07/06 08:06:42;;;;;;;7.97;1.20;;;;;;;16.68;67.37;98545.00;5953502;23;20048;-76
2021/07/06 08:09:08;;;;;;;5.63;1.42;;;;;;;16.46;68.42;98532.59;6094424;23;20128;-75
2021/07/06 08:11:40;;;;;;;7.82;1.27;;;;;;;16.40;68.07;98539.53;6201199;23;20009;-75
2021/07/06 08:14:13;;;;;;;3.10;0.70;;;;;;;16.31;67.76;98541.59;6213894;23;20008;-75
2021/07/06 08:16:38;;;;;;;8.65;1.50;;;;;;;16.31;68.12;98547.94;6209472;23;20039;-75
2021/07/06 08:19:14;;;;;;;;;;;;;;;;;;;;;
2021/07/06 08:21:39;;;;;;;1.98;1.13;;;;;;;16.28;67.73;98569.88;6214296;23;20079;-76
2021/07/06 08:24:05;;;;;;;7.57;1.20;;;;;;;16.04;68.25;98566.84;6185236;23;20012;-76
2021/07/06 08:26:35;;;;;;;2.58;0.80;;;;;;;15.81;69.67;98563.81;6189286;23;20016;-75
2021/07/06 08:29:16;;;;;;;1.73;0.57;;;;;;;15.78;70.16;98564.47;6212443;23;20139;-76
2021/07/06 08:32:01;;;;;;;;;;;;;;;;;;;;;
2021/07/06 08:35:00;;;;;;;2.00;0.45;;;;;;;16.06;69.49;98583.03;6213355;23;20100;-75
2021/07/06 08:37:34;;;;;;;3.38;0.60;;;;;;;16.53;68.91;98593.50;6155479;23;20008;-75
2021/07/06 08:40:06;;;;;;;1.40;0.32;;;;;;;16.68;67.51;98594.69;6203107;23;20015;-75
2021/07/06 08:42:52;;;;;;;;;;;;;;;;;;;;;
2021/07/06 08:46:16;;;;;;;1.35;0.38;;;;;;;16.75;67.55;98622.50;6218553;23;20080;-75
2021/07/06 08:48:49;;;;;;;0.65;0.28;;;;;;;16.80;67.31;98624.19;6175376;23;20005;-75
2021/07/06 08:51:50;;;;;;;;;;;;;;;;;;;;;
2021/07/06 08:54:17;;;;;;;1.45;0.60;;;;;;;17.33;65.37;98628.78;6208672;23;20091;-75
2021/07/06 08:56:50;;;;;;;1.25;0.50;;;;;;;17.30;64.46;98633.06;6207469;23;20001;-76
2021/07/06 08:59:23;;;;;;;1.30;0.30;;;;;;;17.28;64.81;98660.22;6216694;23;19997;-75
2021/07/06 09:01:51;;;;;;;2.47;0.30;;;;;;;16.88;65.02;98659.16;6212890;23;20004;-76
2021/07/06 09:04:23;;;;;;;0.38;0.35;;;;;;;16.40;66.51;98644.34;6217592;23;20412;-76
2021/07/06 09:07:49;;;;;;;;;;;;;;;;;;;;;
2021/07/06 09:10:58;;;;;;;0.40;0.30;;;;;;;16.39;68.11;98659.28;6206659;23;20281;-76
2021/07/06 09:25:16;;;;;;;0.30;0.20;;;;;;;18.03;62.81;98699.25;5996446;23;20380;-76
2021/07/06 09:28:11;;;;;;;;;;;;;;;;;;;;;
2021/07/06 09:30:44;;;;;;;0.60;0.30;;;;;;;17.40;60.57;98729.22;5954040;24;20088;-77
2021/07/06 09:33:30;;;;;;;3.30;0.40;;;;;;;17.25;60.76;98728.03;6032322;23;20237;-74
2021/07/06 09:37:03;;;;;;;2.00;0.60;;;;;;;17.07;59.76;98716.50;6141560;23;20043;-78
2021/07/06 09:42:20;;;;;;;0.50;0.40;;;;;;;17.10;60.69;98748.13;6195632;23;20004;-76
2021/07/06 09:51:48;;;;;;;2.95;0.45;;;;;;;18.30;58.07;98764.72;6147743;23;20016;-77
2021/07/06 09:55:02;;;;;;;;;;;;;;;;;;;;;
2021/07/06 09:57:43;;;;;;;;;;;;;;;;;;;;;
2021/07/06 10:00:20;;;;;;;2.05;0.30;;;;;;;19.08;56.19;98810.41;6223351;23;20031;-76
2021/07/06 10:03:00;;;;;;;0.40;0.40;;;;;;;19.16;56.77;98803.88;6219488;23;20047;-76
2021/07/06 10:05:28;;;;;;;0.60;0.40;;;;;;;18.92;55.98;98807.69;6195903;23;20527;-75
2021/07/06 10:07:54;;;;;;;4.63;0.40;;;;;;;18.54;56.24;98832.09;6223627;23;20002;-76
2021/07/06 10:10:20;;;;;;;1.10;0.50;;;;;;;18.13;57.75;98843.34;6219440;23;20001;-75
2021/07/06 10:12:48;;;;;;;2.45;0.77;;;;;;;17.83;58.37;98834.63;6196187;23;20044;-76
2021/07/06 10:15:18;;;;;;;2.53;0.82;;;;;;;17.52;58.83;98841.69;6219813;23;20445;-77
2021/07/06 10:17:46;;;;;;;4.70;0.88;;;;;;;17.59;59.61;98858.44;6193609;23;21170;-76
2021/07/06 10:20:27;;;;;;;1.33;0.70;;;;;;;17.68;59.72;98861.06;6217383;23;20012;-76
2021/07/06 10:22:59;;;;;;;0.80;0.60;;;;;;;17.81;59.41;98861.81;6205556;23;20077;-77
2021/07/06 10:25:32;;;;;;;1.17;0.60;;;;;;;18.05;58.23;98862.91;6213950;23;20020;-76
2021/07/06 10:28:03;;;;;;;2.47;0.60;;;;;;;18.20;58.51;98862.09;6224376;23;19997;-76
2021/07/06 10:31:16;;;;;;;3.47;0.85;;;;;;;18.62;56.85;98875.41;6216681;23;20005;-77
2021/07/06 10:33:43;;;;;;;4.10;0.90;;;;;;;18.65;57.33;98868.38;6209461;23;20000;-76
2021/07/06 10:36:09;;;;;;;0.90;0.65;;;;;;;18.90;55.99;98885.59;6221804;23;20005;-77
2021/07/06 10:38:39;;;;;;;0.60;0.52;;;;;;;19.46;57.31;98889.22;6214881;23;20015;-76
2021/07/06 10:41:07;;;;;;;2.13;0.93;;;;;;;19.83;52.30;98899.91;6221056;23;20015;-76
2021/07/06 10:43:42;;;;;;;5.35;1.38;;;;;;;19.74;52.95;98916.72;6219723;23;20012;-76
2021/07/06 10:46:18;;;;;;;1.85;0.80;;;;;;;19.53;53.13;98895.72;6221956;23;20325;-76
2021/07/06 10:49:02;;;;;;;1.00;0.47;;;;;;;19.42;51.50;98904.97;6194099;23;19996;-77
2021/07/06 10:51:36;;;;;;;1.15;0.77;;;;;;;19.62;52.04;98903.81;6221387;23;20069;-77
2021/07/06 10:54:03;;;;;;;2.95;0.65;;;;;;;20.16;50.71;98898.56;6221575;23;20024;-76
2021/07/06 10:56:43;;;;;;;2.13;0.55;;;;;;;20.77;49.47;98899.66;6219076;23;20004;-77
2021/07/06 10:59:35;;;;;;;0.65;0.30;;;;;;;21.73;45.55;98913.38;6216440;23;20452;-77
2021/07/06 11:02:09;;;;;;;0.98;0.40;;;;;;;22.52;45.45;98907.91;6216655;23;20312;-77
2021/07/06 11:07:08;;;;;;;5.25;0.30;;;;;;;23.83;39.49;98932.72;6229008;23;20036;-77
2021/07/06 11:09:36;;;;;;;3.92;1.10;;;;;;;24.00;39.14;98934.00;6229565;23;20024;-76
2021/07/06 11:12:23;;;;;;;0.95;0.95;;;;;;;24.42;40.79;98949.28;6218510;23;20020;-76
2021/07/06 11:14:57;;;;;;;0.60;0.32;;;;;;;24.36;38.13;98939.72;6227777;23;20027;-75
2021/07/06 11:17:39;;;;;;;3.15;0.40;;;;;;;24.41;39.88;98947.69;6224808;23;20004;-76
2021/07/06 11:20:14;;;;;;;1.85;0.25;;;;;;;23.88;39.10;98949.91;6213088;23;20000;-76
2021/07/06 11:22:49;;;;;;;1.13;0.43;;;;;;;22.72;42.02;98953.06;6223697;23;20004;-75
2021/07/06 11:25:22;;;;;;;0.77;0.38;;;;;;;21.40;44.11;98953.81;6219533;23;20370;-75
2021/07/06 11:27:59;;;;;;;0.57;0.28;;;;;;;20.91;46.74;98961.03;6220129;23;20000;-75
2021/07/06 11:30:33;;;;;;;2.88;0.60;;;;;;;20.76;48.18;98970.28;6193585;23;20008;-75
2021/07/06 11:33:10;;;;;;;3.85;0.40;;;;;;;20.88;47.55;98983.16;6222797;23;20011;-75
2021/07/06 11:35:39;;;;;;;11.23;0.55;;;;;;;20.87;46.73;98976.03;6224177;23;20068;-75
2021/07/06 11:38:17;;;;;;;2.70;0.40;;;;;;;20.85;47.99;98978.34;6217339;23;20017;-76
2021/07/06 11:40:53;;;;;;;1.33;0.70;;;;;;;20.65;47.75;98970.06;6214578;23;20019;-76
2021/07/06 11:43:20;;;;;;;2.05;0.82;;;;;;;21.20;48.21;98977.34;6221674;23;20304;-75
2021/07/06 11:45:53;;;;;;;6.43;0.30;;;;;;;22.05;48.47;98977.00;6190761;23;20020;-77
2021/07/06 11:48:24;;;;;;;0.95;0.43;;;;;;;22.82;46.44;98987.78;6190601;23;20092;-76
2021/07/06 11:50:49;;;;;;;0.82;0.40;;;;;;;23.75;44.47;98996.06;6223370;23;20055;-73
2021/07/06 11:53:25;;;;;;;0.73;0.35;;;;;;;24.97;42.41;99018.09;6220328;23;20372;-75
2021/07/06 11:55:51;;;;;;;0.63;0.40;;;;;;;26.38;39.86;99006.66;6220923;23;20008;-75
2021/07/06 11:58:22;;;;;;;0.45;0.22;;;;;;;27.51;37.30;99013.91;6213124;23;20008;-76
2021/07/06 12:00:48;;;;;;;0.73;0.30;;;;;;;27.21;35.62;99009.75;6193970;23;20004;-74
2021/07/06 12:03:28;;;;;;;2.15;0.40;;;;;;;26.18;37.32;98997.94;6214114;23;20051;-76
2021/07/06 12:05:57;;;;;;;0.77;0.40;;;;;;;24.98;40.32;99030.06;6223852;23;20011;-75
2021/07/06 12:08:32;;;;;;;3.30;0.30;;;;;;;23.50;42.80;99038.56;6220765;23;20001;-76
2021/07/06 12:11:08;;;;;;;1.35;0.32;;;;;;;22.00;46.74;99040.53;6220623;23;20013;-76
2021/07/06 12:13:44;;;;;;;1.23;0.40;;;;;;;20.96;48.75;99036.91;6223528;23;20412;-75
2021/07/06 12:16:14;;;;;;;0.80;0.30;;;;;;;20.49;50.14;99031.25;6222469;23;20001;-76
2021/07/06 12:19:06;;;;;;;0.55;0.40;;;;;;;20.39;50.86;99029.88;6219675;23;20324;-75
2021/07/06 12:21:33;;;;;;;0.35;0.30;;;;;;;20.53;51.76;99036.88;6216261;23;20015;-75
2021/07/06 12:24:10;;;;;;;0.68;0.22;;;;;;;20.99;50.18;99064.75;6223451;23;20068;-75
2021/07/06 12:26:40;;;;;;;0.75;0.47;;;;;;;20.76;50.22;99050.81;6188151;23;20011;-74
2021/07/06 12:29:06;;;;;;;2.38;0.32;;;;;;;20.29;55.17;99065.75;6191248;23;20004;-75
2021/07/06 12:31:36;;;;;;;0.73;0.40;;;;;;;19.40;61.38;99079.94;6217708;23;20005;-75
2021/07/06 12:34:13;;;;;;;1.35;0.43;;;;;;;18.31;65.40;99059.66;6211024;23;20017;-76
2021/07/06 12:36:47;;;;;;;2.75;0.52;;;;;;;17.85;68.00;99081.16;6218454;23;20003;-76
2021/07/06 12:39:39;;;;;;;4.10;0.73;;;;;;;18.06;72.76;99078.28;6188603;23;20017;-76
2021/07/06 12:42:24;;;;;;;0.60;0.57;;;;;;;19.95;69.14;99082.88;6216025;23;20427;-76
2021/07/06 12:45:16;;;;;;;0.40;0.40;;;;;;;21.54;58.87;99097.09;6191153;23;20039;-83
2021/07/06 12:47:46;;;;;;;0.57;0.22;;;;;;;23.13;53.88;99070.13;6215688;23;20007;-78
2021/07/06 12:54:03;;;;;;;0.70;0.43;;;;;;;24.28;46.62;99083.31;6132156;23;20059;-78